Time;durP1;ratioP1;P1;durP2;ratioP2;P2;SDS_P1;SDS_P2;PMS_P1;PMS_P2;Temp;Humidity;BMP_temperature;BMP_pressure;BME280_temperature;BME280_humidity;BME280_pressure;Samples;Min_cycle;Max_cycle;Signal;HPM_P1;HPM_P2
2023/02/03 00:00:27;;;;;;;6.90;3.88;;;11.70;99.90;;;;;;5050708;28;20192;-76
2023/02/03 00:02:53;;;;;;;5.40;4.07;;;11.80;99.90;;;;;;5049508;28;20173;-76
2023/02/03 00:05:20;;;;;;;6.60;3.75;;;11.80;99.90;;;;;;5048795;28;20269;-76
2023/02/03 00:07:46;;;;;;;7.80;4.95;;;11.80;99.90;;;;;;5049936;28;20800;-76
2023/02/03 00:10:12;;;;;;;6.40;4.00;;;11.70;99.90;;;;;;5033738;28;20173;-77
2023/02/03 00:12:37;;;;;;;7.57;3.63;;;11.70;99.90;;;;;;5049957;28;20586;-76
2023/02/03 00:15:03;;;;;;;6.20;3.53;;;11.70;99.90;;;;;;5050178;28;20626;-77
2023/02/03 00:17:29;;;;;;;7.00;3.35;;;11.80;99.90;;;;;;5049907;28;20219;-77
2023/02/03 00:19:55;;;;;;;6.20;3.70;;;11.80;99.90;;;;;;5050285;28;20161;-77
2023/02/03 00:22:20;;;;;;;13.57;4.00;;;11.80;99.90;;;;;;5051127;28;20180;-77
2023/02/03 00:24:46;;;;;;;4.30;2.67;;;11.80;99.90;;;;;;5050561;28;20176;-77
2023/02/03 00:27:13;;;;;;;7.00;3.60;;;11.80;99.90;;;;;;5051289;28;20299;-77
2023/02/03 00:29:38;;;;;;;4.78;2.88;;;11.80;99.90;;;;;;5033487;28;20234;-77
2023/02/03 00:32:04;;;;;;;10.23;3.67;;;11.80;99.90;;;;;;5049794;28;20656;-76
2023/02/03 00:34:31;;;;;;;5.13;2.30;;;11.80;99.90;;;;;;5033406;28;20179;-77
2023/02/03 00:36:57;;;;;;;7.15;2.67;;;11.80;99.90;;;;;;5049607;28;20234;-77
2023/02/03 00:39:23;;;;;;;4.68;2.40;;;11.80;99.90;;;;;;5051660;28;20161;-76
2023/02/03 00:41:49;;;;;;;10.13;3.67;;;11.80;99.90;;;;;;5050274;28;20638;-76
2023/02/03 00:44:14;;;;;;;7.10;3.10;;;11.80;99.90;;;;;;5050038;28;20169;-77
2023/02/03 00:46:40;;;;;;;5.80;3.00;;;11.80;99.90;;;;;;5049199;28;20204;-77
2023/02/03 00:49:06;;;;;;;4.50;2.33;;;11.70;99.90;;;;;;5049951;28;20176;-77
2023/02/03 00:51:33;;;;;;;6.38;2.83;;;11.70;99.90;;;;;;5050353;28;20173;-76
2023/02/03 00:53:59;;;;;;;3.70;2.50;;;11.70;99.90;;;;;;5033138;28;20188;-77
2023/02/03 00:56:25;;;;;;;7.80;3.40;;;11.80;99.90;;;;;;5033700;28;20217;-76
2023/02/03 00:58:51;;;;;;;4.40;2.00;;;11.80;99.90;;;;;;5051449;28;20173;-76
2023/02/03 01:01:16;;;;;;;5.10;2.20;;;11.70;99.90;;;;;;5049450;28;20291;-77
2023/02/03 01:03:42;;;;;;;16.57;3.80;;;11.80;99.90;;;;;;5051131;28;20169;-77
2023/02/03 01:06:14;;;;;;;7.15;2.75;;;11.70;99.90;;;;;;5049332;28;20258;-77
2023/02/03 01:08:40;;;;;;;5.85;2.42;;;11.80;99.90;;;;;;5051130;28;20219;-76
2023/02/03 01:11:20;;;;;;;6.30;2.30;;;11.80;99.90;;;;;;5049713;28;20531;-76
2023/02/03 01:13:47;;;;;;;4.93;2.47;;;11.80;99.90;;;;;;5051034;28;20222;-77
2023/02/03 01:16:15;;;;;;;6.93;2.55;;;11.70;99.90;;;;;;5052111;28;20224;-77
2023/02/03 01:18:41;;;;;;;4.55;1.50;;;11.80;99.90;;;;;;5036879;28;20176;-76
2023/02/03 01:21:15;;;;;;;4.95;1.75;;;11.80;99.90;;;;;;5053350;28;20251;-76
2023/02/03 01:23:41;;;;;;;5.35;1.98;;;11.80;99.90;;;;;;5053233;28;20177;-76
2023/02/03 01:26:12;;;;;;;9.98;2.00;;;11.70;99.90;;;;;;5054167;28;20197;-77
2023/02/03 01:28:38;;;;;;;4.35;1.70;;;11.80;99.90;;;;;;5053343;28;20230;-76
2023/02/03 01:31:13;;;;;;;9.30;2.40;;;11.80;99.90;;;;;;5053125;28;20189;-77
2023/02/03 01:33:39;;;;;;;5.47;1.63;;;11.80;99.90;;;;;;5057258;28;20180;-77
2023/02/03 01:36:08;;;;;;;6.85;2.00;;;11.80;99.90;;;;;;5052667;28;20219;-77
2023/02/03 01:38:34;;;;;;;4.72;1.90;;;11.80;99.90;;;;;;5054396;28;20200;-77
2023/02/03 01:41:00;;;;;;;5.35;1.70;;;11.80;99.90;;;;;;5054730;28;20180;-77
2023/02/03 01:43:39;;;;;;;6.32;2.63;;;11.80;99.90;;;;;;5052489;28;20306;-77
2023/02/03 01:46:26;;;;;;;4.50;2.22;;;11.80;99.90;;;;;;5053671;28;20287;-77
2023/02/03 01:48:55;;;;;;;6.15;2.05;;;11.80;99.90;;;;;;5052717;28;20264;-77
2023/02/03 01:51:23;;;;;;;8.63;1.90;;;11.80;99.90;;;;;;5052779;28;20230;-77
2023/02/03 01:53:51;;;;;;;5.28;2.60;;;11.80;99.90;;;;;;5053019;28;20169;-77
2023/02/03 01:56:17;;;;;;;5.85;1.80;;;11.80;99.90;;;;;;5052539;28;20628;-77
2023/02/03 01:58:45;;;;;;;5.40;2.30;;;11.80;99.90;;;;;;5036371;28;20209;-77
2023/02/03 02:01:11;;;;;;;3.75;1.90;;;11.80;99.90;;;;;;5052134;28;20188;-77
2023/02/03 02:03:52;;;;;;;6.97;1.90;;;11.80;99.90;;;;;;5052416;28;20537;-77
2023/02/03 02:06:19;;;;;;;6.18;1.70;;;11.80;99.90;;;;;;5052280;28;20718;-77
2023/02/03 02:08:51;;;;;;;5.43;1.80;;;11.80;99.90;;;;;;5036312;28;20829;-76
2023/02/03 02:11:19;;;;;;;3.75;1.27;;;11.90;99.90;;;;;;5037183;28;20239;-76
2023/02/03 02:13:45;;;;;;;4.30;1.55;;;11.80;99.90;;;;;;5052754;28;20172;-76
2023/02/03 02:16:25;;;;;;;4.45;1.45;;;11.90;99.90;;;;;;5053169;28;20560;-76
2023/02/03 02:19:13;;;;;;;3.67;1.80;;;11.90;99.90;;;;;;5052892;28;20177;-77
2023/02/03 02:21:57;;;;;;;4.28;1.60;;;11.90;99.90;;;;;;5035874;28;20180;-77
2023/02/03 02:25:03;;;;;;;4.32;1.65;;;11.90;99.90;;;;;;5036290;28;20168;-76
2023/02/03 02:27:54;;;;;;;4.38;1.50;;;11.90;99.90;;;;;;5036692;28;20802;-77
2023/02/03 02:30:36;;;;;;;5.63;1.55;;;11.90;99.90;;;;;;5035754;28;20204;-77
2023/02/03 02:33:16;;;;;;;2.63;1.50;;;11.90;99.90;;;;;;5035236;28;20298;-76
2023/02/03 02:35:54;;;;;;;3.08;1.52;;;11.90;99.90;;;;;;5051495;28;20200;-77
2023/02/03 02:38:42;;;;;;;4.30;1.70;;;11.90;99.90;;;;;;5035112;28;20707;-77
2023/02/03 02:41:28;;;;;;;2.63;1.30;;;11.90;99.90;;;;;;5035130;28;20311;-77
2023/02/03 02:44:02;;;;;;;6.18;2.53;;;11.90;99.90;;;;;;5035415;28;20173;-76
2023/02/03 02:46:52;;;;;;;4.95;1.17;;;11.90;99.90;;;;;;5052550;28;20558;-76
2023/02/03 02:49:53;;;;;;;4.38;1.10;;;11.90;99.90;;;;;;5019133;28;20169;-77
2023/02/03 02:52:22;;;;;;;7.13;1.20;;;11.90;99.90;;;;;;5049052;28;20185;-76
2023/02/03 02:54:52;;;;;;;16.50;2.65;;;11.90;99.90;;;;;;5034897;28;20184;-76
2023/02/03 02:57:21;;;;;;;4.90;1.70;;;11.90;99.90;;;;;;5034728;28;20201;-77
2023/02/03 02:59:48;;;;;;;4.10;1.65;;;11.90;99.90;;;;;;5034779;28;20676;-76
2023/02/03 03:02:14;;;;;;;4.10;1.60;;;11.80;99.90;;;;;;5051218;28;20200;-76
2023/02/03 03:04:43;;;;;;;3.63;1.47;;;11.90;99.90;;;;;;5050961;28;20570;-77
2023/02/03 03:07:19;;;;;;;3.90;2.00;;;11.90;99.90;;;;;;5034721;28;20185;-76
2023/02/03 03:09:49;;;;;;;5.07;1.30;;;11.80;99.90;;;;;;5051171;28;20546;-77
2023/02/03 03:12:22;;;;;;;3.83;1.10;;;11.80;99.90;;;;;;5052268;28;20207;-76
2023/02/03 03:14:54;;;;;;;4.72;1.83;;;11.80;99.90;;;;;;5050992;28;20199;-76
2023/02/03 03:17:29;;;;;;;2.53;1.40;;;11.90;99.90;;;;;;5035046;28;20219;-76
2023/02/03 03:19:59;;;;;;;4.05;1.63;;;11.80;99.90;;;;;;5051380;28;20589;-76
2023/02/03 03:22:33;;;;;;;5.38;1.33;;;11.80;99.90;;;;;;5034603;28;20191;-77
2023/02/03 03:25:05;;;;;;;8.40;2.00;;;11.80;99.90;;;;;;5053048;28;20319;-77
2023/02/03 03:27:38;;;;;;;2.80;1.30;;;11.80;99.90;;;;;;5050955;28;20205;-76
2023/02/03 03:30:24;;;;;;;5.55;1.98;;;11.80;99.90;;;;;;5050698;28;20177;-76
2023/02/03 03:32:50;;;;;;;6.47;1.85;;;11.80;99.90;;;;;;5051217;28;20176;-77
2023/02/03 03:35:17;;;;;;;7.43;1.83;;;11.80;99.90;;;;;;5054116;28;20295;-76
2023/02/03 03:37:48;;;;;;;5.18;1.88;;;11.80;99.90;;;;;;5054086;28;21193;-77
2023/02/03 03:40:21;;;;;;;4.40;1.75;;;11.80;99.90;;;;;;5052882;28;20177;-77
2023/02/03 03:42:49;;;;;;;4.25;1.20;;;11.80;99.90;;;;;;5053186;28;20287;-77
2023/02/03 03:45:35;;;;;;;6.68;1.58;;;11.80;99.90;;;;;;5052453;28;20181;-77
2023/02/03 03:48:35;;;;;;;3.80;1.70;;;11.80;99.90;;;;;;5036212;28;20211;-77
2023/02/03 03:51:07;;;;;;;7.57;1.98;;;11.80;99.90;;;;;;5034604;28;20216;-77
2023/02/03 03:53:35;;;;;;;4.85;2.10;;;11.90;99.90;;;;;;5034656;28;20169;-77
2023/02/03 03:56:05;;;;;;;4.65;1.70;;;11.90;99.90;;;;;;5050874;28;20811;-77
2023/02/03 03:58:31;;;;;;;5.43;1.77;;;11.80;99.90;;;;;;5050592;28;20263;-76
2023/02/03 04:01:01;;;;;;;4.65;2.05;;;11.90;99.90;;;;;;5051661;28;20173;-77
2023/02/03 04:03:49;;;;;;;4.63;1.83;;;11.80;99.90;;;;;;5052022;28;20539;-77
2023/02/03 04:06:15;;;;;;;3.08;1.60;;;11.80;99.90;;;;;;5050371;28;20193;-77
2023/02/03 04:08:40;;;;;;;4.30;1.67;;;11.80;99.90;;;;;;5051903;28;20531;-77
2023/02/03 04:11:07;;;;;;;3.37;1.80;;;11.80;99.90;;;;;;5033643;28;20583;-77
2023/02/03 04:13:33;;;;;;;3.70;1.80;;;11.80;99.90;;;;;;5051743;28;20695;-77
2023/02/03 04:15:59;;;;;;;4.30;2.13;;;11.90;99.90;;;;;;5049614;28;20208;-76
2023/02/03 04:18:28;;;;;;;3.67;1.57;;;11.90;99.90;;;;;;5050111;28;20184;-77
2023/02/03 04:20:54;;;;;;;7.07;1.77;;;11.90;99.90;;;;;;5050524;28;20176;-77
2023/02/03 04:23:20;;;;;;;3.47;1.60;;;11.90;99.90;;;;;;5051410;28;20176;-77
2023/02/03 04:25:45;;;;;;;3.83;2.23;;;11.80;99.90;;;;;;5050989;28;20185;-77
2023/02/03 04:28:11;;;;;;;4.43;1.17;;;11.80;99.90;;;;;;5053651;28;20195;-76
2023/02/03 04:30:37;;;;;;;2.80;1.27;;;11.80;99.90;;;;;;5039606;28;20206;-76
2023/02/03 04:33:02;;;;;;;8.20;2.50;;;11.80;99.90;;;;;;5052292;28;20535;-77
2023/02/03 04:35:28;;;;;;;12.63;2.07;;;11.80;99.90;;;;;;5051425;28;20167;-77
2023/02/03 04:37:54;;;;;;;6.70;2.00;;;11.80;99.90;;;;;;5052280;28;20268;-77
2023/02/03 04:40:20;;;;;;;5.47;1.63;;;11.80;99.90;;;;;;5051908;28;20641;-77
2023/02/03 04:42:46;;;;;;;5.97;1.50;;;11.80;99.90;;;;;;5050024;28;21202;-77
2023/02/03 04:45:11;;;;;;;4.10;1.20;;;11.80;99.90;;;;;;5032495;28;20173;-77
2023/02/03 04:47:38;;;;;;;4.70;1.90;;;11.80;99.90;;;;;;5050063;28;20172;-77
2023/02/03 04:50:04;;;;;;;8.18;1.80;;;11.80;99.90;;;;;;5054084;28;20576;-77
2023/02/03 04:52:29;;;;;;;2.60;1.52;;;11.80;99.90;;;;;;5053839;28;20185;-77
2023/02/03 04:54:55;;;;;;;5.97;1.63;;;11.80;99.90;;;;;;5053004;28;20172;-77
2023/02/03 04:57:21;;;;;;;9.07;1.73;;;11.80;99.90;;;;;;5053761;28;20714;-76
2023/02/03 04:59:47;;;;;;;3.73;1.40;;;11.80;99.90;;;;;;5054954;28;20633;-76
2023/02/03 05:02:12;;;;;;;7.30;1.23;;;11.80;99.90;;;;;;5053231;28;20171;-76
2023/02/03 05:04:38;;;;;;;7.20;1.67;;;11.80;99.90;;;;;;5054734;28;20187;-76
2023/02/03 05:07:04;;;;;;;6.10;1.87;;;11.80;99.90;;;;;;5036653;28;20197;-76
2023/02/03 05:09:30;;;;;;;8.57;3.23;;;11.80;99.90;;;;;;5054862;28;20656;-76
2023/02/03 05:11:55;;;;;;;5.17;1.43;;;11.80;99.90;;;;;;5054389;28;20200;-76
2023/02/03 05:14:21;;;;;;;3.20;1.20;;;11.80;99.90;;;;;;5037167;28;20243;-77
2023/02/03 05:16:47;;;;;;;6.63;1.70;;;11.80;99.90;;;;;;5055605;28;20300;-77
2023/02/03 05:19:13;;;;;;;3.00;1.37;;;11.80;99.90;;;;;;5054129;28;20204;-77
2023/02/03 05:21:39;;;;;;;6.85;1.42;;;11.80;99.90;;;;;;5053124;28;20267;-76
2023/02/03 05:24:06;;;;;;;3.70;1.40;;;11.80;99.90;;;;;;5053371;28;20740;-76
2023/02/03 05:26:34;;;;;;;2.03;1.00;;;11.80;99.90;;;;;;5052908;28;20761;-77
2023/02/03 05:29:00;;;;;;;4.32;1.27;;;11.80;99.90;;;;;;5053289;28;20175;-77
2023/02/03 05:31:25;;;;;;;5.70;1.10;;;11.80;99.90;;;;;;5054445;28;20176;-76
2023/02/03 05:33:51;;;;;;;4.30;1.90;;;11.80;99.90;;;;;;5054304;28;20185;-77
2023/02/03 05:36:17;;;;;;;7.60;1.60;;;11.80;99.90;;;;;;5054297;28;20209;-76
2023/02/03 05:38:42;;;;;;;4.73;1.30;;;11.80;99.90;;;;;;5052777;28;20298;-77
2023/02/03 05:43:55;;;;;;;4.78;1.05;;;11.80;99.90;;;;;;5036583;28;20183;-77
2023/02/03 05:46:20;;;;;;;3.57;1.10;;;11.80;99.90;;;;;;5054022;28;20200;-77
2023/02/03 05:48:46;;;;;;;4.27;1.20;;;11.80;99.90;;;;;;5052788;28;20220;-77
2023/02/03 05:51:12;;;;;;;2.37;1.17;;;11.80;99.90;;;;;;5052515;28;20637;-77
2023/02/03 05:53:37;;;;;;;5.20;1.97;;;11.90;99.90;;;;;;5054286;28;20268;-76
2023/02/03 05:56:03;;;;;;;4.97;1.10;;;11.90;99.90;;;;;;5053771;28;20603;-76
2023/02/03 05:58:29;;;;;;;2.93;1.00;;;11.80;99.90;;;;;;5052745;28;20679;-76
2023/02/03 06:00:56;;;;;;;5.03;1.10;;;11.80;99.90;;;;;;5053667;28;21020;-76
2023/02/03 06:03:22;;;;;;;4.00;1.50;;;11.80;99.90;;;;;;5052651;28;20216;-76
2023/02/03 06:05:48;;;;;;;4.77;0.97;;;11.90;99.90;;;;;;5053152;28;20608;-77
2023/02/03 06:08:14;;;;;;;3.90;1.13;;;11.90;99.90;;;;;;5052563;28;20680;-77
2023/02/03 06:10:39;;;;;;;6.63;1.30;;;11.90;99.90;;;;;;5052800;28;20272;-77
2023/02/03 06:13:13;;;;;;;7.40;1.37;;;11.90;99.90;;;;;;5052335;28;20211;-77
2023/02/03 06:15:39;;;;;;;6.25;1.50;;;11.90;99.90;;;;;;5052981;28;20201;-77
2023/02/03 06:18:06;;;;;;;5.50;1.20;;;11.90;99.90;;;;;;5052686;28;20513;-77
2023/02/03 06:20:31;;;;;;;3.20;1.20;;;11.80;99.90;;;;;;5052253;28;20681;-77
2023/02/03 06:22:57;;;;;;;9.87;2.17;;;11.80;99.90;;;;;;5052371;28;20659;-78
2023/02/03 06:25:23;;;;;;;5.30;1.23;;;11.90;99.90;;;;;;5053113;28;20660;-78
2023/02/03 06:27:49;;;;;;;7.03;1.30;;;11.90;99.90;;;;;;5053818;28;20177;-78
2023/02/03 06:30:16;;;;;;;3.90;0.88;;;11.90;99.90;;;;;;5036603;28;20583;-78
2023/02/03 06:32:41;;;;;;;6.18;1.58;;;11.90;99.90;;;;;;5053453;28;20181;-77
2023/02/03 06:35:07;;;;;;;3.17;1.33;;;11.90;99.90;;;;;;5053032;28;20175;-78
2023/02/03 06:37:34;;;;;;;4.73;1.90;;;11.90;99.90;;;;;;5052117;28;20275;-78
2023/02/03 06:40:00;;;;;;;6.13;1.00;;;11.90;99.90;;;;;;5052515;28;20169;-77
2023/02/03 06:42:27;;;;;;;2.05;0.90;;;11.80;99.90;;;;;;5051433;28;20200;-78
2023/02/03 06:44:53;;;;;;;3.30;0.90;;;11.90;99.90;;;;;;5053018;28;20224;-78
2023/02/03 06:47:19;;;;;;;1.98;0.70;;;11.90;99.90;;;;;;5053024;28;20255;-78
2023/02/03 06:49:45;;;;;;;3.57;1.00;;;11.90;99.90;;;;;;5051909;28;20177;-78
2023/02/03 06:52:11;;;;;;;3.40;0.83;;;11.90;99.90;;;;;;5051548;28;20604;-78
2023/02/03 06:54:36;;;;;;;5.83;0.90;;;11.90;99.90;;;;;;5051757;28;20179;-77
2023/02/03 06:57:05;;;;;;;6.47;1.30;;;11.90;99.90;;;;;;5051634;28;20295;-78
2023/02/03 06:59:31;;;;;;;5.32;0.88;;;11.90;99.90;;;;;;5051918;28;20208;-79
2023/02/03 07:01:56;;;;;;;3.57;1.07;;;11.90;99.90;;;;;;5050185;28;20722;-77
2023/02/03 07:04:22;;;;;;;2.23;0.93;;;11.90;99.90;;;;;;5035333;28;20246;-77
2023/02/03 07:06:48;;;;;;;5.23;1.63;;;11.90;99.90;;;;;;5053867;28;20200;-76
2023/02/03 07:09:14;;;;;;;7.30;1.37;;;11.90;99.90;;;;;;5053779;28;20173;-78
2023/02/03 07:11:39;;;;;;;2.67;1.50;;;11.90;99.90;;;;;;5053430;28;20184;-78
2023/02/03 07:14:05;;;;;;;4.03;1.07;;;11.90;99.90;;;;;;5035415;28;20184;-77
2023/02/03 07:16:33;;;;;;;4.30;0.80;;;11.90;99.90;;;;;;5054798;28;20250;-77
2023/02/03 07:18:59;;;;;;;5.38;0.90;;;11.90;99.90;;;;;;5036325;28;20177;-77
2023/02/03 07:21:25;;;;;;;5.57;1.30;;;11.90;99.90;;;;;;5054832;28;20811;-77
2023/02/03 07:23:50;;;;;;;4.40;1.10;;;11.90;99.90;;;;;;5056345;28;20268;-77
2023/02/03 07:26:17;;;;;;;2.80;1.23;;;11.90;99.90;;;;;;5059518;28;20612;-78
2023/02/03 07:28:43;;;;;;;3.95;0.77;;;11.90;99.90;;;;;;5057742;28;20668;-77
2023/02/03 07:31:10;;;;;;;3.30;1.00;;;11.90;99.90;;;;;;5046917;28;20204;-78
2023/02/03 07:33:37;;;;;;;3.58;1.20;;;11.90;99.90;;;;;;5065183;28;20571;-77
2023/02/03 07:36:03;;;;;;;6.88;1.30;;;12.00;99.90;;;;;;5060186;28;20193;-77
2023/02/03 07:38:29;;;;;;;4.80;1.20;;;12.00;99.90;;;;;;5052583;28;20536;-76
2023/02/03 07:40:55;;;;;;;6.13;1.03;;;12.00;99.90;;;;;;5034198;28;20177;-76
2023/02/03 07:43:21;;;;;;;3.40;0.97;;;12.00;99.90;;;;;;5051505;28;20587;-76
2023/02/03 07:45:46;;;;;;;5.20;1.00;;;12.00;99.90;;;;;;5050583;28;20606;-76
2023/02/03 07:48:12;;;;;;;2.53;0.80;;;12.00;99.90;;;;;;5052079;28;20908;-76
2023/02/03 07:50:38;;;;;;;3.10;1.00;;;12.00;99.90;;;;;;5053196;28;20199;-77
2023/02/03 07:53:05;;;;;;;3.90;0.93;;;12.00;99.90;;;;;;5034316;28;20591;-76
2023/02/03 07:55:31;;;;;;;2.60;0.70;;;12.00;99.90;;;;;;5017492;28;20580;-76
2023/02/03 07:57:58;;;;;;;3.83;1.10;;;12.00;99.90;;;;;;5050927;28;20563;-77
2023/02/03 08:00:24;;;;;;;2.25;0.85;;;12.10;99.90;;;;;;5051189;28;20185;-76
2023/02/03 08:02:50;;;;;;;4.97;0.85;;;12.10;99.90;;;;;;5050723;28;20272;-76
2023/02/03 08:05:17;;;;;;;2.35;0.90;;;12.10;99.90;;;;;;5050102;28;20195;-77
2023/02/03 08:07:44;;;;;;;3.90;1.00;;;12.10;99.90;;;;;;5052014;28;20173;-77
2023/02/03 08:10:11;;;;;;;2.65;0.90;;;12.10;99.90;;;;;;5050888;28;20284;-77
2023/02/03 08:12:37;;;;;;;2.67;0.80;;;12.20;99.90;;;;;;5052023;28;20271;-76
2023/02/03 08:15:04;;;;;;;5.63;0.88;;;12.20;99.90;;;;;;5049856;28;20679;-76
2023/02/03 08:17:30;;;;;;;3.20;1.15;;;12.20;99.90;;;;;;5051175;28;20207;-77
2023/02/03 08:19:56;;;;;;;2.37;0.80;;;12.20;99.90;;;;;;5050824;28;20203;-77
2023/02/03 08:22:22;;;;;;;3.60;0.87;;;12.20;99.90;;;;;;5050602;28;20181;-77
2023/02/03 08:24:48;;;;;;;3.80;1.47;;;12.20;99.90;;;;;;5050928;28;20172;-76
2023/02/03 08:27:16;;;;;;;3.15;1.10;;;12.30;99.90;;;;;;5050517;28;20607;-76
2023/02/03 08:29:43;;;;;;;2.75;0.90;;;12.20;99.90;;;;;;5050916;28;20192;-77
2023/02/03 08:32:10;;;;;;;7.75;1.52;;;12.30;99.90;;;;;;5049796;28;20185;-77
2023/02/03 08:34:36;;;;;;;3.42;1.30;;;12.30;99.90;;;;;;5050248;28;20275;-78
2023/02/03 08:37:02;;;;;;;3.35;0.93;;;12.30;99.90;;;;;;5050663;28;20212;-76
2023/02/03 08:39:28;;;;;;;3.67;1.10;;;12.30;99.90;;;;;;5048145;28;20516;-77
2023/02/03 08:41:54;;;;;;;1.70;0.80;;;12.30;99.90;;;;;;5030309;28;20577;-77
2023/02/03 08:44:20;;;;;;;4.90;1.30;;;12.30;99.90;;;;;;5047380;28;21134;-77
2023/02/03 08:46:52;;;;;;;2.60;1.20;;;12.30;99.90;;;;;;5031384;28;20200;-76
2023/02/03 08:49:19;;;;;;;3.88;1.20;;;12.30;99.90;;;;;;5031961;28;20664;-76
2023/02/03 08:51:46;;;;;;;3.03;1.00;;;12.30;99.90;;;;;;5030220;28;20238;-76
2023/02/03 08:54:13;;;;;;;4.75;1.02;;;12.30;99.90;;;;;;5046241;28;20181;-76
2023/02/03 08:56:39;;;;;;;4.88;1.15;;;12.30;99.90;;;;;;5047576;28;20197;-76
2023/02/03 08:59:04;;;;;;;8.30;1.53;;;12.20;99.90;;;;;;5046187;28;20180;-76
2023/02/03 09:01:30;;;;;;;3.67;1.57;;;12.30;99.90;;;;;;5051574;28;21103;-76
2023/02/03 09:03:56;;;;;;;5.70;1.20;;;12.30;99.90;;;;;;5051048;28;20165;-76
2023/02/03 09:06:22;;;;;;;4.68;1.50;;;12.20;99.90;;;;;;5049551;28;20197;-77
2023/02/03 09:08:48;;;;;;;3.60;1.30;;;12.30;99.90;;;;;;5050020;28;20696;-77
2023/02/03 09:11:16;;;;;;;3.63;1.30;;;12.30;99.90;;;;;;5049142;28;20177;-77
2023/02/03 09:13:47;;;;;;;6.68;1.70;;;12.30;99.90;;;;;;5049641;28;20595;-77
2023/02/03 09:16:16;;;;;;;4.57;1.10;;;12.30;99.90;;;;;;5047708;28;20631;-77
2023/02/03 09:18:42;;;;;;;2.50;1.10;;;12.30;99.90;;;;;;5047894;28;20173;-76
2023/02/03 09:21:14;;;;;;;3.58;1.10;;;12.30;99.90;;;;;;5048682;28;20169;-76
2023/02/03 09:23:40;;;;;;;3.60;1.10;;;12.30;99.90;;;;;;5047428;28;20235;-77
2023/02/03 09:26:08;;;;;;;2.77;1.10;;;12.30;99.90;;;;;;5052684;28;20225;-77
2023/02/03 09:28:35;;;;;;;4.65;1.65;;;12.30;99.90;;;;;;5033551;28;20605;-77
2023/02/03 09:31:05;;;;;;;3.25;1.50;;;12.30;99.90;;;;;;5045904;28;20224;-77
2023/02/03 09:33:31;;;;;;;3.05;1.25;;;12.30;99.90;;;;;;5031121;28;20180;-77
2023/02/03 09:35:57;;;;;;;3.90;1.00;;;12.30;99.90;;;;;;5015664;28;20268;-77
2023/02/03 09:38:24;;;;;;;2.72;1.10;;;12.20;99.90;;;;;;5037505;28;20173;-77
2023/02/03 09:41:22;;;;;;;7.85;1.42;;;12.30;99.90;;;;;;5054621;28;20185;-76
2023/02/03 09:43:55;;;;;;;2.67;1.23;;;12.30;99.90;;;;;;4995965;28;20603;-77
2023/02/03 09:46:28;;;;;;;9.32;1.50;;;12.30;99.90;;;;;;5033344;28;20759;-77
2023/02/03 09:49:05;;;;;;;4.22;2.33;;;12.30;99.90;;;;;;5033263;28;20235;-77
2023/02/03 09:51:40;;;;;;;4.05;1.40;;;12.30;99.90;;;;;;5033524;28;20181;-77
2023/02/03 09:54:19;;;;;;;4.03;1.77;;;12.30;99.90;;;;;;5035883;28;20231;-78
2023/02/03 09:56:51;;;;;;;2.35;1.67;;;12.30;99.90;;;;;;5053944;28;20211;-77
2023/02/03 09:59:18;;;;;;;7.90;2.05;;;12.30;99.90;;;;;;5052531;28;20168;-77
2023/02/03 10:01:54;;;;;;;2.33;1.42;;;12.30;99.90;;;;;;5046923;28;20164;-76
2023/02/03 10:04:46;;;;;;;5.35;1.50;;;12.30;99.90;;;;;;5053706;28;20248;-76
2023/02/03 10:07:37;;;;;;;6.05;1.80;;;12.20;99.90;;;;;;5053537;28;20201;-76
2023/02/03 10:10:28;;;;;;;5.47;1.45;;;12.20;99.90;;;;;;5053789;28;20180;-76
2023/02/03 10:13:34;;;;;;;2.67;1.80;;;12.20;99.90;;;;;;5054364;28;20176;-76
2023/02/03 10:16:30;;;;;;;4.50;2.25;;;12.20;99.90;;;;;;5033283;28;20299;-76
2023/02/03 10:18:59;;;;;;;3.75;2.55;;;12.20;99.90;;;;;;5049917;28;20172;-76
2023/02/03 10:21:40;;;;;;;3.97;2.30;;;12.20;99.90;;;;;;5051975;28;20211;-76
2023/02/03 10:24:14;;;;;;;5.05;2.00;;;12.20;99.90;;;;;;5052265;28;20208;-76
2023/02/03 10:26:41;;;;;;;6.43;2.08;;;12.20;99.90;;;;;;5051592;28;20196;-75
2023/02/03 10:29:21;;;;;;;2.65;1.38;;;12.20;99.90;;;;;;5052268;28;20195;-76
2023/02/03 10:31:47;;;;;;;3.05;1.55;;;12.10;99.90;;;;;;5053130;28;20168;-75
2023/02/03 10:34:16;;;;;;;5.95;1.63;;;12.10;99.90;;;;;;5053515;28;20193;-76
2023/02/03 10:36:59;;;;;;;4.18;1.75;;;12.10;99.90;;;;;;5052389;28;20208;-76
2023/02/03 10:39:37;;;;;;;2.90;1.95;;;12.10;99.90;;;;;;5052254;28;20212;-75
2023/02/03 10:42:04;;;;;;;3.72;1.60;;;12.10;99.90;;;;;;5052632;28;20168;-75
2023/02/03 10:45:03;;;;;;;3.60;1.80;;;12.00;99.90;;;;;;5052192;28;20177;-75
2023/02/03 10:47:36;;;;;;;2.83;1.48;;;12.00;99.90;;;;;;5049665;28;20207;-75
2023/02/03 10:50:06;;;;;;;3.67;2.00;;;12.00;99.90;;;;;;5053958;28;20181;-76
2023/02/03 10:52:35;;;;;;;7.45;2.97;;;12.00;99.90;;;;;;5051202;28;20586;-76
2023/02/03 10:55:29;;;;;;;3.47;2.30;;;12.00;99.90;;;;;;5051244;28;20192;-76
2023/02/03 10:57:57;;;;;;;4.38;2.83;;;12.00;99.90;;;;;;5052785;28;20201;-76
2023/02/03 11:00:26;;;;;;;4.03;1.70;;;12.00;99.90;;;;;;5051912;28;20165;-76
2023/02/03 11:03:14;;;;;;;3.88;2.45;;;12.00;99.90;;;;;;5046390;28;20181;-76
2023/02/03 11:05:40;;;;;;;4.78;2.40;;;12.00;99.90;;;;;;5046257;28;20671;-75
2023/02/03 11:08:14;;;;;;;3.70;2.00;;;12.10;99.90;;;;;;5050383;28;20188;-75
2023/02/03 11:10:42;;;;;;;4.28;1.60;;;12.00;99.90;;;;;;5051172;28;20176;-76
2023/02/03 11:13:24;;;;;;;5.13;1.98;;;12.00;99.90;;;;;;5051709;28;20184;-76
2023/02/03 11:15:59;;;;;;;4.10;2.03;;;12.00;99.90;;;;;;5050680;28;20266;-76
2023/02/03 11:18:49;;;;;;;2.90;1.83;;;12.10;99.90;;;;;;5051369;28;20216;-78
2023/02/03 11:21:20;;;;;;;5.53;1.90;;;12.00;99.90;;;;;;5059635;28;20177;-76
2023/02/03 11:24:03;;;;;;;4.60;2.45;;;12.10;99.90;;;;;;5046092;28;20165;-76
2023/02/03 11:26:40;;;;;;;4.05;2.13;;;12.10;99.90;;;;;;5032630;28;20193;-77
2023/02/03 11:29:13;;;;;;;3.30;2.30;;;12.10;99.90;;;;;;5032508;28;20181;-77
2023/02/03 11:31:45;;;;;;;4.13;2.55;;;12.10;99.90;;;;;;5035017;28;20180;-77
2023/02/03 11:34:36;;;;;;;4.10;3.70;;;12.00;99.90;;;;;;5051407;28;20181;-78
2023/02/03 11:37:25;;;;;;;7.57;4.15;;;12.10;99.90;;;;;;5049628;28;20204;-76
2023/02/03 11:40:11;;;;;;;5.72;3.85;;;12.10;99.90;;;;;;5051961;28;20502;-76
2023/02/03 11:42:42;;;;;;;6.35;4.10;;;12.10;99.90;;;;;;5050872;28;20173;-76
2023/02/03 11:45:17;;;;;;;9.07;4.25;;;12.10;99.90;;;;;;5051623;28;20173;-76
2023/02/03 11:48:12;;;;;;;6.25;4.30;;;12.20;99.90;;;;;;5051955;28;20263;-76
2023/02/03 11:50:44;;;;;;;7.15;3.72;;;12.20;99.90;;;;;;5050688;28;20173;-77
2023/02/03 11:53:31;;;;;;;6.35;4.10;;;12.20;99.90;;;;;;5051759;28;20538;-77
2023/02/03 11:56:26;;;;;;;5.85;4.30;;;12.20;99.90;;;;;;5050889;28;20664;-78
2023/02/03 11:59:10;;;;;;;7.57;4.55;;;12.20;99.90;;;;;;5051584;28;20262;-78
2023/02/03 12:01:42;;;;;;;7.72;4.55;;;12.20;99.90;;;;;;5049578;28;20169;-78
2023/02/03 12:04:22;;;;;;;5.03;3.67;;;12.20;99.90;;;;;;5051126;28;20176;-78
2023/02/03 12:06:57;;;;;;;4.93;4.25;;;12.30;99.90;;;;;;5047880;28;20200;-78
2023/02/03 12:09:47;;;;;;;8.48;6.30;;;12.30;99.90;;;;;;5048482;28;20783;-78
2023/02/03 12:12:33;;;;;;;5.88;4.50;;;12.30;99.90;;;;;;5049415;28;20515;-78
2023/02/03 12:15:16;;;;;;;6.30;3.70;;;12.30;99.90;;;;;;5050286;28;20241;-78
2023/02/03 12:18:13;;;;;;;3.80;3.50;;;12.30;99.90;;;;;;5050464;28;20205;-78
2023/02/03 12:20:56;;;;;;;4.07;3.17;;;12.30;99.90;;;;;;5050133;28;20223;-78
2023/02/03 12:24:00;;;;;;;7.75;4.93;;;12.30;99.90;;;;;;5051146;28;20531;-78
2023/02/03 12:26:52;;;;;;;8.02;6.53;;;12.30;99.90;;;;;;5033020;28;20262;-78
2023/02/03 12:29:24;;;;;;;10.80;8.93;;;12.30;99.90;;;;;;5050381;28;20217;-78
2023/02/03 12:31:56;;;;;;;10.57;7.35;;;12.30;99.90;;;;;;5050986;28;20506;-78
2023/02/03 12:35:00;;;;;;;12.65;6.63;;;12.40;99.90;;;;;;5050217;28;20255;-78
2023/02/03 12:37:45;;;;;;;9.27;6.30;;;12.40;99.90;;;;;;5042160;28;20250;-78
2023/02/03 12:40:14;;;;;;;6.43;5.80;;;12.40;99.90;;;;;;5060551;28;20568;-78
2023/02/03 12:43:03;;;;;;;6.60;6.00;;;12.40;99.90;;;;;;5058601;28;20176;-78
2023/02/03 12:45:32;;;;;;;6.75;5.50;;;12.40;99.90;;;;;;5051855;28;20181;-76
2023/02/03 12:48:20;;;;;;;8.65;5.20;;;12.40;99.90;;;;;;5070518;28;20251;-77
2023/02/03 12:50:53;;;;;;;6.70;5.43;;;12.40;99.90;;;;;;5070490;28;20176;-78
2023/02/03 12:53:37;;;;;;;7.72;4.82;;;12.40;99.90;;;;;;5070713;28;20191;-77
2023/02/03 12:56:09;;;;;;;8.15;4.93;;;12.40;99.90;;;;;;5053192;28;20201;-78
2023/02/03 12:58:59;;;;;;;6.18;5.55;;;12.40;99.90;;;;;;5066649;28;20585;-77
2023/02/03 13:01:32;;;;;;;7.40;5.83;;;12.50;99.90;;;;;;5050769;28;20246;-77
2023/02/03 13:04:17;;;;;;;11.93;6.65;;;12.50;99.90;;;;;;5049589;28;20588;-76
2023/02/03 13:06:49;;;;;;;12.90;6.73;;;12.50;99.90;;;;;;5048947;28;20295;-77
2023/02/03 13:09:37;;;;;;;7.43;5.53;;;12.40;99.90;;;;;;5050650;28;20578;-76